Kununurra, Australia
Current Conditions -  °F | °C
As of 9:30 AM on Wednesday 22 Oct 2014 (Local Time) from YPKU Reporting Station
Clear Clear  
Wind Chill: 93°   Ceiling: Unl
Heat Index: 96°   Visibility: 6mi
Dew Point: 66°   Wind: 8mph
Humidity: 41%   Direction: 10°N
Pressure: 29.94"   Gusts: NA
Location:  15.77°S, 128.74°E
Report Text: YPKU 220130Z AUTO 01007KT 9999 // NCD 34/19 Q1014
Loading
Personal Weather Stations






























Interactive Weather Map
Tropical Storm Tracking
New forecast layout! Learn more

10-Day Weather Forecast

Advertisements
Track Severe Weather on mobile